sensor_id;sensor_type;location;lat;lon;timestamp;pressure;altitude;pressure_sealevel;temperature;humidity
77939;BME280;67136;47.546;21.630;2023-07-24T00:00:28;100066.69;;;20.52;74.34
77939;BME280;67136;47.546;21.630;2023-07-24T00:03:30;100067.34;;;20.54;74.13
77939;BME280;67136;47.546;21.630;2023-07-24T00:06:33;100064.44;;;20.49;74.57
77939;BME280;67136;47.546;21.630;2023-07-24T00:09:36;100069.75;;;20.49;74.71
77939;BME280;67136;47.546;21.630;2023-07-24T00:12:39;100068.50;;;20.45;74.61
77939;BME280;67136;47.546;21.630;2023-07-24T00:15:42;100068.25;;;20.40;75.22
77939;BME280;67136;47.546;21.630;2023-07-24T00:18:45;100071.31;;;20.37;75.49
77939;BME280;67136;47.546;21.630;2023-07-24T00:21:48;100068.03;;;20.35;74.94
77939;BME280;67136;47.546;21.630;2023-07-24T00:24:51;100065.56;;;20.33;74.92
77939;BME280;67136;47.546;21.630;2023-07-24T00:27:54;100070.06;;;20.33;74.85
77939;BME280;67136;47.546;21.630;2023-07-24T00:30:57;100069.28;;;20.39;75.22
77939;BME280;67136;47.546;21.630;2023-07-24T00:34:00;100071.31;;;20.37;75.39
77939;BME280;67136;47.546;21.630;2023-07-24T00:37:02;100073.34;;;20.35;75.11
77939;BME280;67136;47.546;21.630;2023-07-24T00:40:06;100064.75;;;20.33;75.29
77939;BME280;67136;47.546;21.630;2023-07-24T00:43:09;100070.87;;;20.33;75.56
77939;BME280;67136;47.546;21.630;2023-07-24T00:46:11;100071.69;;;20.34;75.53
77939;BME280;67136;47.546;21.630;2023-07-24T00:49:16;100066.16;;;20.29;75.74
77939;BME280;67136;47.546;21.630;2023-07-24T00:52:19;100070.59;;;20.22;75.58
77939;BME280;67136;47.546;21.630;2023-07-24T00:55:22;100061.72;;;20.15;76.02
77939;BME280;67136;47.546;21.630;2023-07-24T00:58:25;100060.06;;;20.07;76.62
77939;BME280;67136;47.546;21.630;2023-07-24T01:01:32;100065.91;;;20.03;76.99
77939;BME280;67136;47.546;21.630;2023-07-24T01:04:35;100060.00;;;20.01;77.24
77939;BME280;67136;47.546;21.630;2023-07-24T01:07:38;100059.56;;;19.97;77.96
77939;BME280;67136;47.546;21.630;2023-07-24T01:10:42;100056.47;;;19.94;77.90
77939;BME280;67136;47.546;21.630;2023-07-24T01:13:56;100053.81;;;19.94;77.81
77939;BME280;67136;47.546;21.630;2023-07-24T01:17:05;100054.06;;;19.99;77.93
77939;BME280;67136;47.546;21.630;2023-07-24T01:20:10;100061.37;;;19.97;77.38
77939;BME280;67136;47.546;21.630;2023-07-24T01:26:50;100066.09;;;20.01;77.50
77939;BME280;67136;47.546;21.630;2023-07-24T01:29:53;100060.00;;;20.01;77.51
77939;BME280;67136;47.546;21.630;2023-07-24T01:32:56;100058.72;;;19.97;77.78
77939;BME280;67136;47.546;21.630;2023-07-24T01:35:59;100060.13;;;19.93;77.83
77939;BME280;67136;47.546;21.630;2023-07-24T01:39:05;100052.53;;;19.90;77.99
77939;BME280;67136;47.546;21.630;2023-07-24T01:42:08;100053.53;;;19.82;78.47
77939;BME280;67136;47.546;21.630;2023-07-24T01:45:11;100051.63;;;19.76;78.91
77939;BME280;67136;47.546;21.630;2023-07-24T01:48:14;100055.88;;;19.70;78.61
77939;BME280;67136;47.546;21.630;2023-07-24T01:51:22;100057.63;;;19.63;79.13
77939;BME280;67136;47.546;21.630;2023-07-24T01:54:24;100056.75;;;19.56;79.30
77939;BME280;67136;47.546;21.630;2023-07-24T01:57:27;100055.47;;;19.52;79.59
77939;BME280;67136;47.546;21.630;2023-07-24T02:00:30;100054.22;;;19.48;80.59
77939;BME280;67136;47.546;21.630;2023-07-24T02:03:34;100054.63;;;19.45;80.40
77939;BME280;67136;47.546;21.630;2023-07-24T02:06:36;100055.16;;;19.41;80.89
77939;BME280;67136;47.546;21.630;2023-07-24T02:09:39;100057.37;;;19.37;80.92
77939;BME280;67136;47.546;21.630;2023-07-24T02:12:42;100056.91;;;19.34;81.00
77939;BME280;67136;47.546;21.630;2023-07-24T02:15:45;100050.37;;;19.30;81.63
77939;BME280;67136;47.546;21.630;2023-07-24T02:18:47;100048.22;;;19.25;81.96
77939;BME280;67136;47.546;21.630;2023-07-24T02:21:50;100052.28;;;19.21;82.34
77939;BME280;67136;47.546;21.630;2023-07-24T02:24:53;100047.72;;;19.15;82.49
77939;BME280;67136;47.546;21.630;2023-07-24T02:27:55;100057.69;;;19.13;82.87
77939;BME280;67136;47.546;21.630;2023-07-24T02:30:58;100050.75;;;19.12;83.01
77939;BME280;67136;47.546;21.630;2023-07-24T02:34:03;100057.78;;;19.05;82.71
77939;BME280;67136;47.546;21.630;2023-07-24T02:37:07;100050.84;;;19.04;83.18
77939;BME280;67136;47.546;21.630;2023-07-24T02:40:12;100048.59;;;19.01;82.86
77939;BME280;67136;47.546;21.630;2023-07-24T02:43:15;100040.19;;;18.98;82.85
77939;BME280;67136;47.546;21.630;2023-07-24T02:46:17;100051.16;;;18.95;83.23
77939;BME280;67136;47.546;21.630;2023-07-24T02:49:20;100047.69;;;18.94;83.51
77939;BME280;67136;47.546;21.630;2023-07-24T02:52:25;100049.03;;;18.90;83.52
77939;BME280;67136;47.546;21.630;2023-07-24T02:55:28;100042.12;;;18.89;83.41
77939;BME280;67136;47.546;21.630;2023-07-24T02:58:30;100038.81;;;18.87;83.93
77939;BME280;67136;47.546;21.630;2023-07-24T03:01:40;100040.22;;;18.83;83.74
77939;BME280;67136;47.546;21.630;2023-07-24T03:04:43;100043.66;;;18.84;83.89
77939;BME280;67136;47.546;21.630;2023-07-24T03:07:46;100039.19;;;18.84;83.83
77939;BME280;67136;47.546;21.630;2023-07-24T03:10:49;100040.94;;;18.77;83.55
77939;BME280;67136;47.546;21.630;2023-07-24T03:13:52;100043.59;;;18.77;83.60
77939;BME280;67136;47.546;21.630;2023-07-24T03:16:54;100040.56;;;18.80;83.48
77939;BME280;67136;47.546;21.630;2023-07-24T03:19:58;100040.75;;;18.79;83.60
77939;BME280;67136;47.546;21.630;2023-07-24T03:23:01;100033.19;;;18.76;84.01
77939;BME280;67136;47.546;21.630;2023-07-24T03:26:04;100037.56;;;18.83;83.73
77939;BME280;67136;47.546;21.630;2023-07-24T03:29:07;100045.34;;;18.85;83.38
77939;BME280;67136;47.546;21.630;2023-07-24T03:32:10;100038.38;;;18.84;83.20
77939;BME280;67136;47.546;21.630;2023-07-24T03:35:12;100044.13;;;18.87;83.01
77939;BME280;67136;47.546;21.630;2023-07-24T03:38:17;100040.50;;;18.88;82.93
77939;BME280;67136;47.546;21.630;2023-07-24T03:41:20;100035.19;;;18.88;82.84
77939;BME280;67136;47.546;21.630;2023-07-24T03:44:23;100032.81;;;18.93;82.63
77939;BME280;67136;47.546;21.630;2023-07-24T03:47:32;100035.91;;;18.97;82.60
77939;BME280;67136;47.546;21.630;2023-07-24T03:50:34;100031.03;;;19.00;82.07
77939;BME280;67136;47.546;21.630;2023-07-24T03:53:37;100041.88;;;19.05;81.93
77939;BME280;67136;47.546;21.630;2023-07-24T03:56:40;100033.59;;;19.08;81.45
77939;BME280;67136;47.546;21.630;2023-07-24T03:59:43;100029.28;;;19.07;81.38
77939;BME280;67136;47.546;21.630;2023-07-24T04:02:46;100036.22;;;19.08;80.92
77939;BME280;67136;47.546;21.630;2023-07-24T04:05:50;100022.84;;;19.16;80.59
77939;BME280;67136;47.546;21.630;2023-07-24T04:08:52;100026.94;;;19.19;80.28
77939;BME280;67136;47.546;21.630;2023-07-24T04:11:55;100025.81;;;19.28;79.97
77939;BME280;67136;47.546;21.630;2023-07-24T04:14:58;100021.34;;;19.28;79.66
77939;BME280;67136;47.546;21.630;2023-07-24T04:18:01;100010.41;;;19.31;79.44
77939;BME280;67136;47.546;21.630;2023-07-24T04:21:03;100015.75;;;19.38;78.86
77939;BME280;67136;47.546;21.630;2023-07-24T04:24:07;100010.53;;;19.44;78.68
77939;BME280;67136;47.546;21.630;2023-07-24T04:27:10;100007.72;;;19.52;78.15
77939;BME280;67136;47.546;21.630;2023-07-24T04:30:13;100003.34;;;19.66;77.77
77939;BME280;67136;47.546;21.630;2023-07-24T04:33:16;100000.06;;;19.64;77.02
77939;BME280;67136;47.546;21.630;2023-07-24T04:36:19;99998.22;;;19.86;76.37
77939;BME280;67136;47.546;21.630;2023-07-24T04:39:21;100003.16;;;19.89;76.08
77939;BME280;67136;47.546;21.630;2023-07-24T04:42:24;100002.84;;;20.05;75.37
77939;BME280;67136;47.546;21.630;2023-07-24T04:45:33;100004.50;;;20.06;74.75
77939;BME280;67136;47.546;21.630;2023-07-24T04:48:36;100002.56;;;20.21;74.41
77939;BME280;67136;47.546;21.630;2023-07-24T04:51:47;100003.47;;;20.34;73.89
77939;BME280;67136;47.546;21.630;2023-07-24T04:54:50;100001.66;;;20.41;73.14
77939;BME280;67136;47.546;21.630;2023-07-24T04:57:52;99998.69;;;20.57;72.33
77939;BME280;67136;47.546;21.630;2023-07-24T05:00:55;100005.69;;;20.71;72.10
77939;BME280;67136;47.546;21.630;2023-07-24T05:03:58;100004.88;;;20.71;71.56
77939;BME280;67136;47.546;21.630;2023-07-24T05:07:01;100000.00;;;20.81;71.26
77939;BME280;67136;47.546;21.630;2023-07-24T05:10:04;99996.75;;;20.92;70.98
77939;BME280;67136;47.546;21.630;2023-07-24T05:13:07;100007.50;;;21.12;70.21
77939;BME280;67136;47.546;21.630;2023-07-24T05:16:10;100010.81;;;21.27;69.82
77939;BME280;67136;47.546;21.630;2023-07-24T05:19:13;100010.81;;;21.27;69.79
77939;BME280;67136;47.546;21.630;2023-07-24T05:22:16;100000.59;;;21.30;69.62
77939;BME280;67136;47.546;21.630;2023-07-24T05:25:19;99997.72;;;21.38;69.52
77939;BME280;67136;47.546;21.630;2023-07-24T05:28:21;99991.56;;;21.51;69.21
77939;BME280;67136;47.546;21.630;2023-07-24T05:31:24;99989.31;;;21.67;68.75
77939;BME280;67136;47.546;21.630;2023-07-24T05:34:28;99989.12;;;21.75;68.40
77939;BME280;67136;47.546;21.630;2023-07-24T05:37:31;99992.44;;;21.84;68.21
77939;BME280;67136;47.546;21.630;2023-07-24T05:40:33;99989.16;;;21.88;68.03
77939;BME280;67136;47.546;21.630;2023-07-24T05:43:36;99990.97;;;21.94;67.76
77939;BME280;67136;47.546;21.630;2023-07-24T05:46:39;99984.03;;;22.00;67.38
77939;BME280;67136;47.546;21.630;2023-07-24T05:49:42;99984.00;;;22.06;67.14
77939;BME280;67136;47.546;21.630;2023-07-24T05:52:45;99992.34;;;22.36;66.49
77939;BME280;67136;47.546;21.630;2023-07-24T05:55:58;99993.50;;;22.60;65.97
77939;BME280;67136;47.546;21.630;2023-07-24T05:59:02;99988.19;;;23.04;64.53
77939;BME280;67136;47.546;21.630;2023-07-24T06:02:05;99989.06;;;23.29;63.60
77939;BME280;67136;47.546;21.630;2023-07-24T06:05:11;99985.78;;;23.27;63.43
77939;BME280;67136;47.546;21.630;2023-07-24T06:08:13;99987.56;;;23.64;62.08
77939;BME280;67136;47.546;21.630;2023-07-24T06:11:16;99976.28;;;24.47;59.86
77939;BME280;67136;47.546;21.630;2023-07-24T06:14:19;99981.88;;;25.76;56.85
77939;BME280;67136;47.546;21.630;2023-07-24T06:17:22;99974.91;;;25.75;55.87
77939;BME280;67136;47.546;21.630;2023-07-24T06:20:25;99974.53;;;25.60;55.89
77939;BME280;67136;47.546;21.630;2023-07-24T06:23:28;99980.03;;;26.00;54.34
77939;BME280;67136;47.546;21.630;2023-07-24T06:26:31;99974.78;;;26.39;53.44
77939;BME280;67136;47.546;21.630;2023-07-24T06:29:34;99980.81;;;25.54;55.44
77939;BME280;67136;47.546;21.630;2023-07-24T06:32:40;99979.09;;;26.29;53.47
77939;BME280;67136;47.546;21.630;2023-07-24T06:35:43;99972.88;;;26.51;52.94
77939;BME280;67136;47.546;21.630;2023-07-24T06:38:45;99977.16;;;26.64;52.12
77939;BME280;67136;47.546;21.630;2023-07-24T06:41:52;99979.16;;;26.68;51.62
77939;BME280;67136;47.546;21.630;2023-07-24T06:44:55;99965.28;;;27.00;50.53
77939;BME280;67136;47.546;21.630;2023-07-24T06:47:58;99970.22;;;27.36;49.72
77939;BME280;67136;47.546;21.630;2023-07-24T06:51:04;99967.25;;;26.64;51.13
77939;BME280;67136;47.546;21.630;2023-07-24T06:54:07;99965.28;;;27.00;50.80
77939;BME280;67136;47.546;21.630;2023-07-24T06:57:10;99962.31;;;26.84;51.26
77939;BME280;67136;47.546;21.630;2023-07-24T07:00:13;99966.00;;;27.73;49.19
77939;BME280;67136;47.546;21.630;2023-07-24T07:03:16;99957.41;;;27.26;49.83
77939;BME280;67136;47.546;21.630;2023-07-24T07:06:19;99955.84;;;27.14;50.44
77939;BME280;67136;47.546;21.630;2023-07-24T07:09:24;99948.19;;;27.06;50.33
77939;BME280;67136;47.546;21.630;2023-07-24T07:12:27;99946.28;;;27.67;49.20
77939;BME280;67136;47.546;21.630;2023-07-24T07:15:31;99941.72;;;27.18;49.78
77939;BME280;67136;47.546;21.630;2023-07-24T07:18:34;99947.50;;;27.76;48.91
77939;BME280;67136;47.546;21.630;2023-07-24T07:21:36;99946.63;;;28.04;48.23
77939;BME280;67136;47.546;21.630;2023-07-24T07:24:39;99952.59;;;28.11;47.90
77939;BME280;67136;47.546;21.630;2023-07-24T07:27:42;99950.69;;;27.90;48.87
77939;BME280;67136;47.546;21.630;2023-07-24T07:30:44;99948.66;;;27.80;49.01
77939;BME280;67136;47.546;21.630;2023-07-24T07:33:47;99953.72;;;27.77;48.96
77939;BME280;67136;47.546;21.630;2023-07-24T07:36:50;99948.69;;;28.62;47.42
77939;BME280;67136;47.546;21.630;2023-07-24T07:39:53;99946.31;;;29.13;46.16
77939;BME280;67136;47.546;21.630;2023-07-24T07:42:57;99945.22;;;28.23;48.13
77939;BME280;67136;47.546;21.630;2023-07-24T07:45:59;99947.97;;;28.06;48.73
77939;BME280;67136;47.546;21.630;2023-07-24T07:49:02;99947.47;;;28.96;46.58
77939;BME280;67136;47.546;21.630;2023-07-24T07:52:05;99951.88;;;29.34;45.68
77939;BME280;67136;47.546;21.630;2023-07-24T07:55:08;99951.72;;;29.77;45.41
77939;BME280;67136;47.546;21.630;2023-07-24T07:58:11;99953.09;;;30.26;44.33
77939;BME280;67136;47.546;21.630;2023-07-24T08:01:14;99950.19;;;31.39;41.83
77939;BME280;67136;47.546;21.630;2023-07-24T08:04:17;99940.94;;;31.05;42.10
77939;BME280;67136;47.546;21.630;2023-07-24T08:07:20;99947.87;;;30.61;43.15
77939;BME280;67136;47.546;21.630;2023-07-24T08:10:23;99939.41;;;30.37;44.16
77939;BME280;67136;47.546;21.630;2023-07-24T08:13:25;99936.62;;;32.00;41.14
77939;BME280;67136;47.546;21.630;2023-07-24T08:16:28;99922.47;;;33.20;38.37
77939;BME280;67136;47.546;21.630;2023-07-24T08:19:31;99908.91;;;33.82;37.33
77939;BME280;67136;47.546;21.630;2023-07-24T08:22:34;99916.38;;;31.52;41.42
77939;BME280;67136;47.546;21.630;2023-07-24T08:25:37;99919.31;;;31.91;40.61
77939;BME280;67136;47.546;21.630;2023-07-24T08:28:40;99921.78;;;31.72;40.60
77939;BME280;67136;47.546;21.630;2023-07-24T08:31:45;99923.47;;;32.47;39.21
77939;BME280;67136;47.546;21.630;2023-07-24T08:34:48;99918.41;;;32.84;38.89
77939;BME280;67136;47.546;21.630;2023-07-24T08:38:02;99913.78;;;33.85;36.63
77939;BME280;67136;47.546;21.630;2023-07-24T08:41:07;99919.84;;;32.03;40.28
77939;BME280;67136;47.546;21.630;2023-07-24T08:44:10;99914.50;;;33.00;38.67
77939;BME280;67136;47.546;21.630;2023-07-24T08:47:13;99916.31;;;32.07;40.32
77939;BME280;67136;47.546;21.630;2023-07-24T08:50:17;99908.75;;;32.63;39.57
77939;BME280;67136;47.546;21.630;2023-07-24T08:53:21;99901.31;;;34.08;37.13
77939;BME280;67136;47.546;21.630;2023-07-24T08:56:25;99901.19;;;34.42;36.20
77939;BME280;67136;47.546;21.630;2023-07-24T08:59:28;99908.31;;;32.51;40.29
77939;BME280;67136;47.546;21.630;2023-07-24T09:02:35;99905.81;;;32.54;40.05
77939;BME280;67136;47.546;21.630;2023-07-24T09:05:38;99903.44;;;33.87;37.88
77939;BME280;67136;47.546;21.630;2023-07-24T09:08:42;99903.53;;;35.41;35.24
77939;BME280;67136;47.546;21.630;2023-07-24T09:11:52;99909.16;;;32.85;39.59
77939;BME280;67136;47.546;21.630;2023-07-24T09:15:03;99892.94;;;34.05;37.59
77939;BME280;67136;47.546;21.630;2023-07-24T09:18:08;99889.19;;;33.77;38.30
77939;BME280;67136;47.546;21.630;2023-07-24T09:21:11;99890.97;;;35.72;34.54
77939;BME280;67136;47.546;21.630;2023-07-24T09:24:17;99885.72;;;35.30;35.28
77939;BME280;67136;47.546;21.630;2023-07-24T09:27:24;99884.41;;;35.46;34.73
77939;BME280;67136;47.546;21.630;2023-07-24T09:30:28;99870.34;;;35.07;35.60
77939;BME280;67136;47.546;21.630;2023-07-24T09:36:38;99866.84;;;35.52;34.48
77939;BME280;67136;47.546;21.630;2023-07-24T09:39:41;99870.81;;;36.28;33.49
77939;BME280;67136;47.546;21.630;2023-07-24T09:42:44;99869.06;;;36.59;33.38
77939;BME280;67136;47.546;21.630;2023-07-24T09:46:07;99862.53;;;35.51;34.17
77939;BME280;67136;47.546;21.630;2023-07-24T09:49:12;99861.28;;;35.44;34.60
77939;BME280;67136;47.546;21.630;2023-07-24T09:52:17;99853.34;;;34.46;36.47
77939;BME280;67136;47.546;21.630;2023-07-24T09:55:27;99842.75;;;34.26;36.81
77939;BME280;67136;47.546;21.630;2023-07-24T09:58:33;99839.50;;;35.89;33.98
77939;BME280;67136;47.546;21.630;2023-07-24T10:01:37;99827.34;;;35.41;34.48
77939;BME280;67136;47.546;21.630;2023-07-24T10:04:40;99827.00;;;36.38;32.39
77939;BME280;67136;47.546;21.630;2023-07-24T10:07:43;99815.25;;;38.34;29.70
77939;BME280;67136;47.546;21.630;2023-07-24T10:10:46;99832.47;;;34.60;35.26
77939;BME280;67136;47.546;21.630;2023-07-24T10:13:50;99839.38;;;36.08;33.22
77939;BME280;67136;47.546;21.630;2023-07-24T10:16:55;99836.53;;;36.13;33.05
77939;BME280;67136;47.546;21.630;2023-07-24T10:20:05;99829.41;;;36.75;32.02
77939;BME280;67136;47.546;21.630;2023-07-24T10:23:17;99822.62;;;37.08;31.37
77939;BME280;67136;47.546;21.630;2023-07-24T10:26:27;99825.41;;;37.47;30.47
77939;BME280;67136;47.546;21.630;2023-07-24T10:29:34;99817.00;;;35.11;34.63
77939;BME280;67136;47.546;21.630;2023-07-24T10:32:48;99825.25;;;36.55;32.85
77939;BME280;67136;47.546;21.630;2023-07-24T10:36:08;99813.62;;;38.25;29.50
77939;BME280;67136;47.546;21.630;2023-07-24T10:39:17;99800.50;;;37.79;30.38
77939;BME280;67136;47.546;21.630;2023-07-24T10:42:26;99804.13;;;36.39;32.03
77939;BME280;67136;47.546;21.630;2023-07-24T10:45:41;99797.00;;;36.73;31.88
77939;BME280;67136;47.546;21.630;2023-07-24T10:48:47;99790.31;;;39.42;28.03
77939;BME280;67136;47.546;21.630;2023-07-24T10:51:57;99805.84;;;40.25;26.70
77939;BME280;67136;47.546;21.630;2023-07-24T10:55:01;99790.59;;;39.20;27.80
77939;BME280;67136;47.546;21.630;2023-07-24T10:58:05;99780.94;;;39.89;27.22
77939;BME280;67136;47.546;21.630;2023-07-24T11:01:11;99780.78;;;39.02;28.24
77939;BME280;67136;47.546;21.630;2023-07-24T11:04:13;99778.19;;;36.63;31.07
77939;BME280;67136;47.546;21.630;2023-07-24T11:07:17;99775.38;;;38.33;29.16
77939;BME280;67136;47.546;21.630;2023-07-24T11:10:22;99774.25;;;38.69;28.37
77939;BME280;67136;47.546;21.630;2023-07-24T11:13:27;99776.19;;;38.60;28.49
77939;BME280;67136;47.546;21.630;2023-07-24T11:16:30;99778.00;;;37.82;29.54
77939;BME280;67136;47.546;21.630;2023-07-24T11:19:34;99779.72;;;38.51;28.05
77939;BME280;67136;47.546;21.630;2023-07-24T11:22:42;99766.06;;;37.61;30.06
77939;BME280;67136;47.546;21.630;2023-07-24T11:25:45;99761.72;;;38.68;28.65
77939;BME280;67136;47.546;21.630;2023-07-24T11:28:52;99761.34;;;39.41;27.63
77939;BME280;67136;47.546;21.630;2023-07-24T11:31:55;99751.72;;;40.55;25.32
77939;BME280;67136;47.546;21.630;2023-07-24T11:34:59;99761.47;;;39.53;26.99
77939;BME280;67136;47.546;21.630;2023-07-24T11:38:02;99752.25;;;39.57;26.71
77939;BME280;67136;47.546;21.630;2023-07-24T11:41:05;99731.69;;;41.44;24.48
77939;BME280;67136;47.546;21.630;2023-07-24T11:44:11;99733.00;;;39.08;27.57
77939;BME280;67136;47.546;21.630;2023-07-24T11:47:19;99737.78;;;40.81;25.19
77939;BME280;67136;47.546;21.630;2023-07-24T11:50:23;99739.63;;;39.94;26.12
77939;BME280;67136;47.546;21.630;2023-07-24T11:53:28;99739.56;;;39.53;26.39
77939;BME280;67136;47.546;21.630;2023-07-24T11:56:32;99738.59;;;40.07;25.90
77939;BME280;67136;47.546;21.630;2023-07-24T11:59:37;99730.78;;;40.71;25.17
77939;BME280;67136;47.546;21.630;2023-07-24T12:02:41;99724.41;;;41.60;24.40
77939;BME280;67136;47.546;21.630;2023-07-24T12:05:45;99726.06;;;39.10;26.82
77939;BME280;67136;47.546;21.630;2023-07-24T12:08:51;99713.00;;;38.35;28.01
77939;BME280;67136;47.546;21.630;2023-07-24T12:11:58;99707.34;;;38.06;28.36
77939;BME280;67136;47.546;21.630;2023-07-24T12:15:01;99698.53;;;39.07;26.91
77939;BME280;67136;47.546;21.630;2023-07-24T12:18:04;99703.19;;;39.73;25.82
77939;BME280;67136;47.546;21.630;2023-07-24T12:21:08;99701.97;;;39.33;26.16
77939;BME280;67136;47.546;21.630;2023-07-24T12:24:11;99689.50;;;39.15;26.24
77939;BME280;67136;47.546;21.630;2023-07-24T12:27:14;99688.06;;;37.94;28.59
77939;BME280;67136;47.546;21.630;2023-07-24T12:30:17;99678.59;;;39.35;25.82
77939;BME280;67136;47.546;21.630;2023-07-24T12:33:20;99677.38;;;40.68;24.27
77939;BME280;67136;47.546;21.630;2023-07-24T12:36:26;99684.84;;;39.74;25.33
77939;BME280;67136;47.546;21.630;2023-07-24T12:39:29;99679.59;;;38.85;26.74
77939;BME280;67136;47.546;21.630;2023-07-24T12:42:32;99670.53;;;39.10;26.66
77939;BME280;67136;47.546;21.630;2023-07-24T12:45:34;99681.91;;;39.99;25.34
77939;BME280;67136;47.546;21.630;2023-07-24T12:48:37;99661.31;;;40.14;24.65
77939;BME280;67136;47.546;21.630;2023-07-24T12:51:43;99667.56;;;39.52;25.53
77939;BME280;67136;47.546;21.630;2023-07-24T12:54:46;99656.41;;;41.09;23.80
77939;BME280;67136;47.546;21.630;2023-07-24T12:58:02;99649.47;;;40.66;23.32
77939;BME280;67136;47.546;21.630;2023-07-24T13:01:05;99648.75;;;39.51;24.66
77939;BME280;67136;47.546;21.630;2023-07-24T13:04:09;99644.00;;;38.56;26.22
77939;BME280;67136;47.546;21.630;2023-07-24T13:07:12;99626.13;;;39.33;25.45
77939;BME280;67136;47.546;21.630;2023-07-24T13:10:15;99618.75;;;40.28;24.19
77939;BME280;67136;47.546;21.630;2023-07-24T13:13:19;99616.84;;;40.73;23.59
77939;BME280;67136;47.546;21.630;2023-07-24T13:16:22;99608.38;;;38.09;27.08
77939;BME280;67136;47.546;21.630;2023-07-24T13:19:25;99613.53;;;39.12;25.33
77939;BME280;67136;47.546;21.630;2023-07-24T13:22:28;99609.75;;;38.49;26.26
77939;BME280;67136;47.546;21.630;2023-07-24T13:25:31;99600.03;;;39.07;25.43
77939;BME280;67136;47.546;21.630;2023-07-24T13:28:34;99599.56;;;37.95;26.58
77939;BME280;67136;47.546;21.630;2023-07-24T13:31:37;99591.53;;;37.56;27.47
77939;BME280;67136;47.546;21.630;2023-07-24T13:34:40;99597.00;;;39.29;25.60
77939;BME280;67136;47.546;21.630;2023-07-24T13:37:43;99588.47;;;39.10;25.81
77939;BME280;67136;47.546;21.630;2023-07-24T13:40:48;99590.72;;;37.98;26.07
77939;BME280;67136;47.546;21.630;2023-07-24T13:43:51;99582.87;;;37.71;26.77
77939;BME280;67136;47.546;21.630;2023-07-24T13:46:54;99572.09;;;38.64;25.43
77939;BME280;67136;47.546;21.630;2023-07-24T13:49:59;99573.16;;;38.33;26.48
77939;BME280;67136;47.546;21.630;2023-07-24T13:53:08;99576.78;;;36.92;28.27
77939;BME280;67136;47.546;21.630;2023-07-24T13:56:11;99564.53;;;36.73;28.51
77939;BME280;67136;47.546;21.630;2023-07-24T13:59:14;99569.63;;;36.35;29.41
77939;BME280;67136;47.546;21.630;2023-07-24T14:02:17;99557.94;;;37.56;27.44
77939;BME280;67136;47.546;21.630;2023-07-24T14:05:21;99543.75;;;36.94;28.37
77939;BME280;67136;47.546;21.630;2023-07-24T14:08:24;99540.81;;;36.34;29.41
77939;BME280;67136;47.546;21.630;2023-07-24T14:11:28;99522.69;;;36.77;29.03
77939;BME280;67136;47.546;21.630;2023-07-24T14:14:31;99517.69;;;36.71;28.99
77939;BME280;67136;47.546;21.630;2023-07-24T14:17:34;99520.22;;;35.97;29.62
77939;BME280;67136;47.546;21.630;2023-07-24T14:20:38;99518.13;;;35.94;29.56
77939;BME280;67136;47.546;21.630;2023-07-24T14:23:43;99514.78;;;36.67;28.41
77939;BME280;67136;47.546;21.630;2023-07-24T14:26:46;99498.91;;;35.77;29.84
77939;BME280;67136;47.546;21.630;2023-07-24T14:29:51;99494.88;;;35.88;28.85
77939;BME280;67136;47.546;21.630;2023-07-24T14:32:54;99474.44;;;35.99;27.75
77939;BME280;67136;47.546;21.630;2023-07-24T14:35:58;99464.59;;;36.68;27.37
77939;BME280;67136;47.546;21.630;2023-07-24T14:39:01;99454.81;;;36.19;27.96
77939;BME280;67136;47.546;21.630;2023-07-24T14:42:05;99448.31;;;34.74;29.57
77939;BME280;67136;47.546;21.630;2023-07-24T14:45:08;99446.72;;;35.31;28.92
77939;BME280;67136;47.546;21.630;2023-07-24T14:48:11;99451.97;;;35.41;28.67
77939;BME280;67136;47.546;21.630;2023-07-24T14:51:16;99446.53;;;35.41;28.53
77939;BME280;67136;47.546;21.630;2023-07-24T14:54:19;99450.06;;;35.28;28.56
77939;BME280;67136;47.546;21.630;2023-07-24T14:57:23;99446.91;;;35.79;28.24
77939;BME280;67136;47.546;21.630;2023-07-24T15:00:31;99440.28;;;34.42;29.55
77939;BME280;67136;47.546;21.630;2023-07-24T15:03:33;99438.84;;;34.04;29.32
77939;BME280;67136;47.546;21.630;2023-07-24T15:06:36;99438.25;;;33.94;29.67
77939;BME280;67136;47.546;21.630;2023-07-24T15:09:40;99421.75;;;34.31;29.29
77939;BME280;67136;47.546;21.630;2023-07-24T15:12:43;99424.59;;;34.26;29.29
77939;BME280;67136;47.546;21.630;2023-07-24T15:15:45;99420.53;;;33.96;29.80
77939;BME280;67136;47.546;21.630;2023-07-24T15:18:48;99417.44;;;33.70;30.27
77939;BME280;67136;47.546;21.630;2023-07-24T15:21:51;99397.34;;;33.58;30.86
77939;BME280;67136;47.546;21.630;2023-07-24T15:24:54;99406.81;;;33.87;30.58
77939;BME280;67136;47.546;21.630;2023-07-24T15:27:56;99407.69;;;33.37;31.23
77939;BME280;67136;47.546;21.630;2023-07-24T15:30:59;99402.59;;;33.81;30.99
77939;BME280;67136;47.546;21.630;2023-07-24T15:34:02;99395.75;;;33.70;30.48
77939;BME280;67136;47.546;21.630;2023-07-24T15:37:06;99390.69;;;32.81;31.77
77939;BME280;67136;47.546;21.630;2023-07-24T15:40:09;99395.97;;;33.10;31.49
77939;BME280;67136;47.546;21.630;2023-07-24T15:43:14;99380.34;;;32.83;31.90
77939;BME280;67136;47.546;21.630;2023-07-24T15:46:16;99386.16;;;32.95;30.93
77939;BME280;67136;47.546;21.630;2023-07-24T15:49:19;99391.56;;;32.95;30.88
77939;BME280;67136;47.546;21.630;2023-07-24T15:52:22;99376.56;;;32.84;30.54
77939;BME280;67136;47.546;21.630;2023-07-24T15:55:25;99377.28;;;32.52;30.43
77939;BME280;67136;47.546;21.630;2023-07-24T15:58:27;99369.94;;;32.53;30.58
77939;BME280;67136;47.546;21.630;2023-07-24T16:01:30;99374.28;;;32.54;31.11
77939;BME280;67136;47.546;21.630;2023-07-24T16:04:34;99367.38;;;32.43;31.64